sensor_id;sensor_type;location;lat;lon;timestamp;P1;durP1;ratioP1;P2;durP2;ratioP2
23745;SDS011;12053;48.878;9.632;2023-06-10T00:02:17;4.85;;;3.88;;
23745;SDS011;12053;48.878;9.632;2023-06-10T00:04:44;4.30;;;3.63;;
23745;SDS011;12053;48.878;9.632;2023-06-10T00:07:11;4.35;;;3.95;;
23745;SDS011;12053;48.878;9.632;2023-06-10T00:09:39;4.22;;;3.83;;
23745;SDS011;12053;48.878;9.632;2023-06-10T00:12:07;5.55;;;4.05;;
23745;SDS011;12053;48.878;9.632;2023-06-10T00:14:37;4.35;;;3.90;;
23745;SDS011;12053;48.878;9.632;2023-06-10T00:17:05;6.57;;;4.13;;
23745;SDS011;12053;48.878;9.632;2023-06-10T00:19:38;4.53;;;4.10;;
23745;SDS011;12053;48.878;9.632;2023-06-10T00:22:07;3.80;;;3.50;;
23745;SDS011;12053;48.878;9.632;2023-06-10T00:24:37;6.35;;;4.30;;
23745;SDS011;12053;48.878;9.632;2023-06-10T00:27:04;7.88;;;4.25;;
23745;SDS011;12053;48.878;9.632;2023-06-10T00:29:33;6.70;;;4.07;;
23745;SDS011;12053;48.878;9.632;2023-06-10T00:32:01;4.35;;;3.90;;
23745;SDS011;12053;48.878;9.632;2023-06-10T00:34:28;4.88;;;4.38;;
23745;SDS011;12053;48.878;9.632;2023-06-10T00:36:55;4.97;;;3.90;;
23745;SDS011;12053;48.878;9.632;2023-06-10T00:39:23;4.10;;;3.78;;
23745;SDS011;12053;48.878;9.632;2023-06-10T00:41:50;4.57;;;3.97;;
23745;SDS011;12053;48.878;9.632;2023-06-10T00:44:17;6.53;;;3.95;;
23745;SDS011;12053;48.878;9.632;2023-06-10T00:46:45;4.28;;;3.85;;
23745;SDS011;12053;48.878;9.632;2023-06-10T00:49:12;4.25;;;3.85;;
23745;SDS011;12053;48.878;9.632;2023-06-10T00:51:39;4.43;;;3.83;;
23745;SDS011;12053;48.878;9.632;2023-06-10T00:54:07;4.50;;;4.00;;
23745;SDS011;12053;48.878;9.632;2023-06-10T00:56:35;4.25;;;3.85;;
23745;SDS011;12053;48.878;9.632;2023-06-10T00:59:02;4.32;;;3.92;;
23745;SDS011;12053;48.878;9.632;2023-06-10T01:01:29;4.50;;;4.10;;
23745;SDS011;12053;48.878;9.632;2023-06-10T01:03:56;5.10;;;4.40;;
23745;SDS011;12053;48.878;9.632;2023-06-10T01:06:41;4.97;;;4.03;;
23745;SDS011;12053;48.878;9.632;2023-06-10T01:09:18;7.28;;;4.18;;
23745;SDS011;12053;48.878;9.632;2023-06-10T01:11:58;4.95;;;3.90;;
23745;SDS011;12053;48.878;9.632;2023-06-10T01:14:26;4.85;;;4.43;;
23745;SDS011;12053;48.878;9.632;2023-06-10T01:16:53;5.15;;;4.10;;
23745;SDS011;12053;48.878;9.632;2023-06-10T01:19:20;4.82;;;4.43;;
23745;SDS011;12053;48.878;9.632;2023-06-10T01:21:50;5.53;;;4.20;;
23745;SDS011;12053;48.878;9.632;2023-06-10T01:24:18;5.30;;;4.03;;
23745;SDS011;12053;48.878;9.632;2023-06-10T01:26:45;4.78;;;4.28;;
23745;SDS011;12053;48.878;9.632;2023-06-10T01:29:17;4.70;;;4.20;;
23745;SDS011;12053;48.878;9.632;2023-06-10T01:31:48;4.78;;;4.30;;
23745;SDS011;12053;48.878;9.632;2023-06-10T01:34:17;5.13;;;4.10;;
23745;SDS011;12053;48.878;9.632;2023-06-10T01:36:46;5.57;;;4.43;;
23745;SDS011;12053;48.878;9.632;2023-06-10T01:39:14;4.70;;;4.28;;
23745;SDS011;12053;48.878;9.632;2023-06-10T01:41:42;4.57;;;4.18;;
23745;SDS011;12053;48.878;9.632;2023-06-10T01:44:10;4.85;;;4.45;;
23745;SDS011;12053;48.878;9.632;2023-06-10T01:46:37;7.20;;;4.47;;
23745;SDS011;12053;48.878;9.632;2023-06-10T01:49:04;6.97;;;4.45;;
23745;SDS011;12053;48.878;9.632;2023-06-10T01:51:33;6.75;;;4.15;;
23745;SDS011;12053;48.878;9.632;2023-06-10T01:54:00;5.93;;;4.50;;
23745;SDS011;12053;48.878;9.632;2023-06-10T01:56:28;4.80;;;4.20;;
23745;SDS011;12053;48.878;9.632;2023-06-10T01:58:55;7.38;;;4.10;;
23745;SDS011;12053;48.878;9.632;2023-06-10T02:01:25;4.88;;;4.32;;
23745;SDS011;12053;48.878;9.632;2023-06-10T02:03:52;4.55;;;4.15;;
23745;SDS011;12053;48.878;9.632;2023-06-10T02:06:20;7.07;;;4.63;;
23745;SDS011;12053;48.878;9.632;2023-06-10T02:08:47;5.55;;;4.38;;
23745;SDS011;12053;48.878;9.632;2023-06-10T02:11:14;6.85;;;4.63;;
23745;SDS011;12053;48.878;9.632;2023-06-10T02:13:41;5.38;;;4.82;;
23745;SDS011;12053;48.878;9.632;2023-06-10T02:16:09;5.78;;;4.22;;
23745;SDS011;12053;48.878;9.632;2023-06-10T02:18:41;4.47;;;4.07;;
23745;SDS011;12053;48.878;9.632;2023-06-10T02:21:12;5.30;;;4.28;;
23745;SDS011;12053;48.878;9.632;2023-06-10T02:23:39;5.30;;;4.30;;
23745;SDS011;12053;48.878;9.632;2023-06-10T02:26:07;5.85;;;4.25;;
23745;SDS011;12053;48.878;9.632;2023-06-10T02:28:34;4.60;;;4.18;;
23745;SDS011;12053;48.878;9.632;2023-06-10T02:31:01;5.72;;;4.35;;
23745;SDS011;12053;48.878;9.632;2023-06-10T02:33:29;5.88;;;4.43;;
23745;SDS011;12053;48.878;9.632;2023-06-10T02:35:56;5.05;;;4.55;;
23745;SDS011;12053;48.878;9.632;2023-06-10T02:38:23;4.88;;;4.25;;
23745;SDS011;12053;48.878;9.632;2023-06-10T02:40:50;4.80;;;4.40;;
23745;SDS011;12053;48.878;9.632;2023-06-10T02:43:18;4.80;;;4.30;;
23745;SDS011;12053;48.878;9.632;2023-06-10T02:45:45;5.28;;;4.40;;
23745;SDS011;12053;48.878;9.632;2023-06-10T02:48:12;4.90;;;4.40;;
23745;SDS011;12053;48.878;9.632;2023-06-10T02:50:40;5.47;;;4.78;;
23745;SDS011;12053;48.878;9.632;2023-06-10T02:53:07;6.25;;;4.85;;
23745;SDS011;12053;48.878;9.632;2023-06-10T02:55:34;5.53;;;5.03;;
23745;SDS011;12053;48.878;9.632;2023-06-10T02:58:01;4.78;;;4.30;;
23745;SDS011;12053;48.878;9.632;2023-06-10T03:00:29;5.60;;;5.03;;
23745;SDS011;12053;48.878;9.632;2023-06-10T03:02:57;5.20;;;4.70;;
23745;SDS011;12053;48.878;9.632;2023-06-10T03:05:24;7.10;;;4.78;;
23745;SDS011;12053;48.878;9.632;2023-06-10T03:07:51;6.20;;;5.05;;
23745;SDS011;12053;48.878;9.632;2023-06-10T03:10:19;5.47;;;4.97;;
23745;SDS011;12053;48.878;9.632;2023-06-10T03:12:46;5.45;;;4.88;;
23745;SDS011;12053;48.878;9.632;2023-06-10T03:15:13;6.88;;;5.65;;
23745;SDS011;12053;48.878;9.632;2023-06-10T03:17:42;6.45;;;5.57;;
23745;SDS011;12053;48.878;9.632;2023-06-10T03:20:09;6.85;;;5.30;;
23745;SDS011;12053;48.878;9.632;2023-06-10T03:22:36;5.40;;;4.85;;
23745;SDS011;12053;48.878;9.632;2023-06-10T03:25:07;6.28;;;4.80;;
23745;SDS011;12053;48.878;9.632;2023-06-10T03:30:07;6.38;;;4.60;;
23745;SDS011;12053;48.878;9.632;2023-06-10T03:32:35;6.57;;;5.60;;
23745;SDS011;12053;48.878;9.632;2023-06-10T03:35:03;8.20;;;5.70;;
23745;SDS011;12053;48.878;9.632;2023-06-10T03:37:30;6.40;;;5.80;;
23745;SDS011;12053;48.878;9.632;2023-06-10T03:39:57;7.10;;;5.70;;
23745;SDS011;12053;48.878;9.632;2023-06-10T03:42:24;6.20;;;5.60;;
23745;SDS011;12053;48.878;9.632;2023-06-10T03:44:52;7.00;;;6.05;;
23745;SDS011;12053;48.878;9.632;2023-06-10T03:47:19;7.40;;;5.18;;
23745;SDS011;12053;48.878;9.632;2023-06-10T03:49:46;7.25;;;5.57;;
23745;SDS011;12053;48.878;9.632;2023-06-10T03:52:14;6.22;;;5.63;;
23745;SDS011;12053;48.878;9.632;2023-06-10T03:54:41;6.88;;;5.03;;
23745;SDS011;12053;48.878;9.632;2023-06-10T03:57:08;5.97;;;5.40;;
23745;SDS011;12053;48.878;9.632;2023-06-10T03:59:35;6.13;;;5.60;;
23745;SDS011;12053;48.878;9.632;2023-06-10T04:02:03;5.90;;;5.30;;
23745;SDS011;12053;48.878;9.632;2023-06-10T04:04:31;8.68;;;6.00;;
23745;SDS011;12053;48.878;9.632;2023-06-10T04:06:58;6.13;;;5.53;;
23745;SDS011;12053;48.878;9.632;2023-06-10T04:09:25;6.40;;;5.72;;
23745;SDS011;12053;48.878;9.632;2023-06-10T04:11:53;8.00;;;5.47;;
23745;SDS011;12053;48.878;9.632;2023-06-10T04:14:20;6.30;;;5.70;;
23745;SDS011;12053;48.878;9.632;2023-06-10T04:16:47;6.28;;;5.63;;
23745;SDS011;12053;48.878;9.632;2023-06-10T04:19:15;7.40;;;6.60;;
23745;SDS011;12053;48.878;9.632;2023-06-10T04:21:42;6.60;;;5.85;;
23745;SDS011;12053;48.878;9.632;2023-06-10T04:24:10;6.90;;;6.15;;
23745;SDS011;12053;48.878;9.632;2023-06-10T04:26:37;9.52;;;6.50;;
23745;SDS011;12053;48.878;9.632;2023-06-10T04:29:04;6.78;;;6.07;;
23745;SDS011;12053;48.878;9.632;2023-06-10T04:31:31;6.05;;;5.55;;
23745;SDS011;12053;48.878;9.632;2023-06-10T04:33:59;8.57;;;5.28;;
23745;SDS011;12053;48.878;9.632;2023-06-10T04:36:27;6.88;;;5.60;;
23745;SDS011;12053;48.878;9.632;2023-06-10T04:38:56;6.40;;;5.25;;
23745;SDS011;12053;48.878;9.632;2023-06-10T04:41:23;7.07;;;5.70;;
23745;SDS011;12053;48.878;9.632;2023-06-10T04:43:52;5.53;;;5.03;;
23745;SDS011;12053;48.878;9.632;2023-06-10T04:46:19;5.70;;;5.10;;
23745;SDS011;12053;48.878;9.632;2023-06-10T04:48:47;6.38;;;5.40;;
23745;SDS011;12053;48.878;9.632;2023-06-10T04:51:14;5.53;;;4.95;;
23745;SDS011;12053;48.878;9.632;2023-06-10T04:53:41;5.70;;;5.13;;
23745;SDS011;12053;48.878;9.632;2023-06-10T04:56:08;8.75;;;5.80;;
23745;SDS011;12053;48.878;9.632;2023-06-10T04:58:35;7.25;;;5.68;;
23745;SDS011;12053;48.878;9.632;2023-06-10T05:01:03;5.82;;;4.95;;
23745;SDS011;12053;48.878;9.632;2023-06-10T05:03:30;7.00;;;6.03;;
23745;SDS011;12053;48.878;9.632;2023-06-10T05:05:57;5.80;;;5.20;;
23745;SDS011;12053;48.878;9.632;2023-06-10T05:08:25;6.13;;;5.53;;
23745;SDS011;12053;48.878;9.632;2023-06-10T05:10:52;6.15;;;5.55;;
23745;SDS011;12053;48.878;9.632;2023-06-10T05:13:19;6.57;;;4.97;;
23745;SDS011;12053;48.878;9.632;2023-06-10T05:15:46;5.55;;;5.05;;
23745;SDS011;12053;48.878;9.632;2023-06-10T05:18:14;8.10;;;5.97;;
23745;SDS011;12053;48.878;9.632;2023-06-10T05:20:41;8.52;;;5.45;;
23745;SDS011;12053;48.878;9.632;2023-06-10T05:23:08;5.97;;;5.03;;
23745;SDS011;12053;48.878;9.632;2023-06-10T05:25:36;6.68;;;5.53;;
23745;SDS011;12053;48.878;9.632;2023-06-10T05:28:07;6.78;;;5.43;;
23745;SDS011;12053;48.878;9.632;2023-06-10T05:30:41;6.05;;;5.20;;
23745;SDS011;12053;48.878;9.632;2023-06-10T05:33:08;6.60;;;5.68;;
23745;SDS011;12053;48.878;9.632;2023-06-10T05:35:35;5.55;;;5.00;;
23745;SDS011;12053;48.878;9.632;2023-06-10T05:38:03;5.63;;;5.05;;
23745;SDS011;12053;48.878;9.632;2023-06-10T05:40:30;5.43;;;4.93;;
23745;SDS011;12053;48.878;9.632;2023-06-10T05:42:57;5.03;;;4.53;;
23745;SDS011;12053;48.878;9.632;2023-06-10T05:45:25;5.50;;;4.90;;
23745;SDS011;12053;48.878;9.632;2023-06-10T05:47:52;6.65;;;4.72;;
23745;SDS011;12053;48.878;9.632;2023-06-10T05:50:19;5.95;;;5.40;;
23745;SDS011;12053;48.878;9.632;2023-06-10T05:52:46;6.00;;;5.40;;
23745;SDS011;12053;48.878;9.632;2023-06-10T05:55:13;6.95;;;5.63;;
23745;SDS011;12053;48.878;9.632;2023-06-10T05:57:41;6.18;;;5.00;;
23745;SDS011;12053;48.878;9.632;2023-06-10T06:00:09;5.45;;;4.75;;
23745;SDS011;12053;48.878;9.632;2023-06-10T06:02:36;5.70;;;4.70;;
23745;SDS011;12053;48.878;9.632;2023-06-10T06:05:03;5.78;;;5.03;;
23745;SDS011;12053;48.878;9.632;2023-06-10T06:07:31;5.22;;;4.72;;
23745;SDS011;12053;48.878;9.632;2023-06-10T06:09:59;5.32;;;4.78;;
23745;SDS011;12053;48.878;9.632;2023-06-10T06:12:26;7.47;;;5.20;;
23745;SDS011;12053;48.878;9.632;2023-06-10T06:14:54;5.53;;;4.82;;
23745;SDS011;12053;48.878;9.632;2023-06-10T06:17:21;5.53;;;5.03;;
23745;SDS011;12053;48.878;9.632;2023-06-10T06:19:48;5.18;;;4.63;;
23745;SDS011;12053;48.878;9.632;2023-06-10T06:22:15;5.25;;;4.75;;
23745;SDS011;12053;48.878;9.632;2023-06-10T06:24:46;5.18;;;4.53;;
23745;SDS011;12053;48.878;9.632;2023-06-10T06:27:16;5.18;;;4.68;;
23745;SDS011;12053;48.878;9.632;2023-06-10T06:29:43;4.80;;;4.40;;
23745;SDS011;12053;48.878;9.632;2023-06-10T06:32:11;4.75;;;3.75;;
23745;SDS011;12053;48.878;9.632;2023-06-10T06:34:38;6.15;;;4.25;;
23745;SDS011;12053;48.878;9.632;2023-06-10T06:37:05;4.35;;;3.95;;
23745;SDS011;12053;48.878;9.632;2023-06-10T06:39:33;7.70;;;4.47;;
23745;SDS011;12053;48.878;9.632;2023-06-10T06:42:00;6.63;;;4.28;;
23745;SDS011;12053;48.878;9.632;2023-06-10T06:44:27;4.90;;;4.40;;
23745;SDS011;12053;48.878;9.632;2023-06-10T06:46:54;5.72;;;4.40;;
23745;SDS011;12053;48.878;9.632;2023-06-10T06:49:22;4.57;;;4.18;;
23745;SDS011;12053;48.878;9.632;2023-06-10T06:51:49;5.35;;;4.80;;
23745;SDS011;12053;48.878;9.632;2023-06-10T06:54:16;4.68;;;4.28;;
23745;SDS011;12053;48.878;9.632;2023-06-10T06:56:43;5.53;;;5.13;;
23745;SDS011;12053;48.878;9.632;2023-06-10T06:59:10;7.45;;;4.82;;
23745;SDS011;12053;48.878;9.632;2023-06-10T07:01:40;4.57;;;4.18;;
23745;SDS011;12053;48.878;9.632;2023-06-10T07:04:07;6.05;;;5.18;;
23745;SDS011;12053;48.878;9.632;2023-06-10T07:06:34;8.40;;;6.13;;
23745;SDS011;12053;48.878;9.632;2023-06-10T07:09:04;5.55;;;4.78;;
23745;SDS011;12053;48.878;9.632;2023-06-10T07:11:32;7.72;;;6.45;;
23745;SDS011;12053;48.878;9.632;2023-06-10T07:13:59;6.25;;;5.05;;
23745;SDS011;12053;48.878;9.632;2023-06-10T07:16:27;6.57;;;4.88;;
23745;SDS011;12053;48.878;9.632;2023-06-10T07:18:54;6.30;;;4.70;;
23745;SDS011;12053;48.878;9.632;2023-06-10T07:21:21;6.03;;;5.43;;
23745;SDS011;12053;48.878;9.632;2023-06-10T07:23:49;5.22;;;4.72;;
23745;SDS011;12053;48.878;9.632;2023-06-10T07:26:21;5.60;;;5.10;;
23745;SDS011;12053;48.878;9.632;2023-06-10T07:28:49;6.38;;;5.45;;
23745;SDS011;12053;48.878;9.632;2023-06-10T07:31:16;5.60;;;5.03;;
23745;SDS011;12053;48.878;9.632;2023-06-10T07:33:43;6.57;;;5.22;;
23745;SDS011;12053;48.878;9.632;2023-06-10T07:36:10;7.00;;;5.45;;
23745;SDS011;12053;48.878;9.632;2023-06-10T07:38:38;5.32;;;4.80;;
23745;SDS011;12053;48.878;9.632;2023-06-10T07:41:05;8.20;;;4.97;;
23745;SDS011;12053;48.878;9.632;2023-06-10T07:43:32;5.53;;;5.00;;
23745;SDS011;12053;48.878;9.632;2023-06-10T07:45:59;7.00;;;4.60;;
23745;SDS011;12053;48.878;9.632;2023-06-10T07:48:27;5.32;;;4.93;;
23745;SDS011;12053;48.878;9.632;2023-06-10T07:50:54;5.50;;;4.90;;
23745;SDS011;12053;48.878;9.632;2023-06-10T07:53:21;8.68;;;4.90;;
23745;SDS011;12053;48.878;9.632;2023-06-10T07:55:49;7.30;;;5.40;;
23745;SDS011;12053;48.878;9.632;2023-06-10T07:58:16;5.55;;;5.00;;
23745;SDS011;12053;48.878;9.632;2023-06-10T08:00:43;5.05;;;4.30;;
23745;SDS011;12053;48.878;9.632;2023-06-10T08:03:10;7.95;;;4.90;;
23745;SDS011;12053;48.878;9.632;2023-06-10T08:05:39;5.20;;;4.53;;
23745;SDS011;12053;48.878;9.632;2023-06-10T08:08:07;11.10;;;8.10;;
23745;SDS011;12053;48.878;9.632;2023-06-10T08:10:34;6.28;;;4.75;;
23745;SDS011;12053;48.878;9.632;2023-06-10T08:13:01;7.20;;;4.55;;
23745;SDS011;12053;48.878;9.632;2023-06-10T08:15:29;6.72;;;4.20;;
23745;SDS011;12053;48.878;9.632;2023-06-10T08:17:56;4.72;;;4.30;;
23745;SDS011;12053;48.878;9.632;2023-06-10T08:20:23;5.28;;;4.53;;
23745;SDS011;12053;48.878;9.632;2023-06-10T08:22:50;5.60;;;3.75;;
23745;SDS011;12053;48.878;9.632;2023-06-10T08:25:18;4.25;;;3.85;;
23745;SDS011;12053;48.878;9.632;2023-06-10T08:27:47;4.75;;;4.35;;
23745;SDS011;12053;48.878;9.632;2023-06-10T08:30:16;9.70;;;4.15;;
23745;SDS011;12053;48.878;9.632;2023-06-10T08:32:44;5.28;;;4.78;;
23745;SDS011;12053;48.878;9.632;2023-06-10T08:35:11;6.47;;;4.10;;
23745;SDS011;12053;48.878;9.632;2023-06-10T08:37:38;6.15;;;3.85;;
23745;SDS011;12053;48.878;9.632;2023-06-10T08:40:06;6.10;;;4.10;;
23745;SDS011;12053;48.878;9.632;2023-06-10T08:42:41;4.60;;;4.20;;
23745;SDS011;12053;48.878;9.632;2023-06-10T08:45:09;5.90;;;4.32;;
23745;SDS011;12053;48.878;9.632;2023-06-10T08:47:39;5.93;;;4.05;;
23745;SDS011;12053;48.878;9.632;2023-06-10T08:50:09;4.30;;;3.90;;
23745;SDS011;12053;48.878;9.632;2023-06-10T08:52:40;4.78;;;4.35;;
23745;SDS011;12053;48.878;9.632;2023-06-10T08:55:19;4.78;;;4.30;;
23745;SDS011;12053;48.878;9.632;2023-06-10T08:57:55;5.53;;;4.85;;
23745;SDS011;12053;48.878;9.632;2023-06-10T09:00:23;5.07;;;4.47;;
23745;SDS011;12053;48.878;9.632;2023-06-10T09:02:50;5.63;;;4.35;;
23745;SDS011;12053;48.878;9.632;2023-06-10T09:05:18;5.85;;;4.35;;
23745;SDS011;12053;48.878;9.632;2023-06-10T09:07:47;4.75;;;4.10;;
23745;SDS011;12053;48.878;9.632;2023-06-10T09:10:14;5.22;;;4.78;;
23745;SDS011;12053;48.878;9.632;2023-06-10T09:12:42;6.55;;;4.75;;
23745;SDS011;12053;48.878;9.632;2023-06-10T09:15:09;5.28;;;4.60;;
23745;SDS011;12053;48.878;9.632;2023-06-10T09:17:38;5.53;;;4.65;;
23745;SDS011;12053;48.878;9.632;2023-06-10T09:20:07;4.60;;;4.20;;
23745;SDS011;12053;48.878;9.632;2023-06-10T09:22:36;4.50;;;4.10;;
23745;SDS011;12053;48.878;9.632;2023-06-10T09:25:07;6.72;;;4.70;;
23745;SDS011;12053;48.878;9.632;2023-06-10T09:30:27;5.03;;;4.40;;
23745;SDS011;12053;48.878;9.632;2023-06-10T09:32:56;4.60;;;4.20;;
23745;SDS011;12053;48.878;9.632;2023-06-10T09:35:24;5.28;;;4.55;;
23745;SDS011;12053;48.878;9.632;2023-06-10T09:37:53;11.77;;;5.05;;
23745;SDS011;12053;48.878;9.632;2023-06-10T09:40:20;5.35;;;4.75;;
23745;SDS011;12053;48.878;9.632;2023-06-10T09:42:52;5.65;;;4.53;;
23745;SDS011;12053;48.878;9.632;2023-06-10T09:45:21;5.85;;;4.20;;
23745;SDS011;12053;48.878;9.632;2023-06-10T09:47:54;5.50;;;4.15;;
23745;SDS011;12053;48.878;9.632;2023-06-10T09:50:22;6.63;;;5.00;;
23745;SDS011;12053;48.878;9.632;2023-06-10T09:52:50;6.00;;;5.07;;
23745;SDS011;12053;48.878;9.632;2023-06-10T09:55:17;5.50;;;5.00;;
23745;SDS011;12053;48.878;9.632;2023-06-10T09:57:44;6.25;;;4.60;;
23745;SDS011;12053;48.878;9.632;2023-06-10T10:00:16;4.57;;;4.18;;
23745;SDS011;12053;48.878;9.632;2023-06-10T10:02:47;4.95;;;4.38;;
23745;SDS011;12053;48.878;9.632;2023-06-10T10:05:15;5.47;;;4.83;;
23745;SDS011;12053;48.878;9.632;2023-06-10T10:07:43;4.80;;;4.40;;
23745;SDS011;12053;48.878;9.632;2023-06-10T10:10:11;5.18;;;4.40;;
23745;SDS011;12053;48.878;9.632;2023-06-10T10:12:40;4.97;;;4.43;;
23745;SDS011;12053;48.878;9.632;2023-06-10T10:15:08;5.70;;;4.25;;
23745;SDS011;12053;48.878;9.632;2023-06-10T10:17:37;4.65;;;4.22;;
23745;SDS011;12053;48.878;9.632;2023-06-10T10:20:05;5.45;;;4.32;;
23745;SDS011;12053;48.878;9.632;2023-06-10T10:22:43;4.60;;;3.97;;
23745;SDS011;12053;48.878;9.632;2023-06-10T10:25:11;4.32;;;3.92;;
23745;SDS011;12053;48.878;9.632;2023-06-10T10:30:10;3.78;;;3.47;;
23745;SDS011;12053;48.878;9.632;2023-06-10T10:32:38;4.55;;;3.85;;
23745;SDS011;12053;48.878;9.632;2023-06-10T10:35:11;4.68;;;4.03;;
23745;SDS011;12053;48.878;9.632;2023-06-10T10:37:39;4.10;;;3.70;;
23745;SDS011;12053;48.878;9.632;2023-06-10T10:40:07;5.88;;;4.50;;
23745;SDS011;12053;48.878;9.632;2023-06-10T10:42:35;4.90;;;4.25;;
23745;SDS011;12053;48.878;9.632;2023-06-10T10:45:03;4.82;;;3.80;;
23745;SDS011;12053;48.878;9.632;2023-06-10T10:47:34;5.43;;;4.30;;
23745;SDS011;12053;48.878;9.632;2023-06-10T10:50:12;6.82;;;4.40;;
23745;SDS011;12053;48.878;9.632;2023-06-10T10:53:14;4.65;;;4.00;;
23745;SDS011;12053;48.878;9.632;2023-06-10T10:55:34;4.40;;;4.00;;
23745;SDS011;12053;48.878;9.632;2023-06-10T10:58:07;6.25;;;3.67;;
23745;SDS011;12053;48.878;9.632;2023-06-10T11:00:37;5.72;;;3.97;;
23745;SDS011;12053;48.878;9.632;2023-06-10T11:03:06;5.57;;;3.85;;
23745;SDS011;12053;48.878;9.632;2023-06-10T11:05:39;4.28;;;3.88;;
23745;SDS011;12053;48.878;9.632;2023-06-10T11:08:08;6.35;;;3.97;;
23745;SDS011;12053;48.878;9.632;2023-06-10T11:10:50;4.63;;;4.22;;
23745;SDS011;12053;48.878;9.632;2023-06-10T11:13:21;4.57;;;4.18;;
23745;SDS011;12053;48.878;9.632;2023-06-10T11:15:49;5.30;;;4.03;;
23745;SDS011;12053;48.878;9.632;2023-06-10T11:28:41;4.57;;;3.83;;
23745;SDS011;12053;48.878;9.632;2023-06-10T11:31:09;4.68;;;3.90;;
23745;SDS011;12053;48.878;9.632;2023-06-10T11:33:55;4.63;;;4.20;;
23745;SDS011;12053;48.878;9.632;2023-06-10T11:36:23;4.45;;;4.05;;
23745;SDS011;12053;48.878;9.632;2023-06-10T11:38:53;4.97;;;3.80;;
23745;SDS011;12053;48.878;9.632;2023-06-10T11:41:20;4.80;;;3.97;;
23745;SDS011;12053;48.878;9.632;2023-06-10T11:43:48;4.13;;;3.67;;
23745;SDS011;12053;48.878;9.632;2023-06-10T11:46:15;4.18;;;3.78;;
23745;SDS011;12053;48.878;9.632;2023-06-10T11:48:52;4.18;;;3.80;;
23745;SDS011;12053;48.878;9.632;2023-06-10T11:51:19;4.28;;;3.88;;
23745;SDS011;12053;48.878;9.632;2023-06-10T11:53:47;6.45;;;3.90;;
23745;SDS011;12053;48.878;9.632;2023-06-10T11:56:24;4.57;;;3.67;;
23745;SDS011;12053;48.878;9.632;2023-06-10T11:58:52;4.68;;;3.50;;
23745;SDS011;12053;48.878;9.632;2023-06-10T12:01:21;5.25;;;3.92;;
23745;SDS011;12053;48.878;9.632;2023-06-10T12:03:58;4.75;;;3.50;;
23745;SDS011;12053;48.878;9.632;2023-06-10T12:06:25;4.43;;;3.65;;
23745;SDS011;12053;48.878;9.632;2023-06-10T12:08:53;4.10;;;3.70;;
23745;SDS011;12053;48.878;9.632;2023-06-10T12:11:32;4.25;;;3.63;;
23745;SDS011;12053;48.878;9.632;2023-06-10T12:14:00;3.70;;;3.40;;
23745;SDS011;12053;48.878;9.632;2023-06-10T12:16:29;6.88;;;3.53;;
23745;SDS011;12053;48.878;9.632;2023-06-10T12:19:03;5.75;;;3.50;;
23745;SDS011;12053;48.878;9.632;2023-06-10T12:21:32;4.40;;;3.97;;
23745;SDS011;12053;48.878;9.632;2023-06-10T12:24:05;3.85;;;3.45;;
23745;SDS011;12053;48.878;9.632;2023-06-10T12:26:43;4.78;;;4.15;;
23745;SDS011;12053;48.878;9.632;2023-06-10T12:29:23;3.88;;;3.53;;
23745;SDS011;12053;48.878;9.632;2023-06-10T12:34:28;4.88;;;3.22;;
23745;SDS011;12053;48.878;9.632;2023-06-10T12:36:55;5.93;;;3.38;;
23745;SDS011;12053;48.878;9.632;2023-06-10T12:39:22;3.60;;;3.30;;
23745;SDS011;12053;48.878;9.632;2023-06-10T12:41:50;3.45;;;3.10;;
23745;SDS011;12053;48.878;9.632;2023-06-10T12:44:18;3.65;;;3.28;;
23745;SDS011;12053;48.878;9.632;2023-06-10T12:46:45;4.57;;;3.67;;
23745;SDS011;12053;48.878;9.632;2023-06-10T12:49:19;4.07;;;3.75;;
23745;SDS011;12053;48.878;9.632;2023-06-10T12:51:47;4.88;;;3.70;;
23745;SDS011;12053;48.878;9.632;2023-06-10T12:54:14;3.75;;;3.38;;
23745;SDS011;12053;48.878;9.632;2023-06-10T12:56:42;4.25;;;3.85;;
23745;SDS011;12053;48.878;9.632;2023-06-10T12:59:09;4.00;;;3.70;;
23745;SDS011;12053;48.878;9.632;2023-06-10T13:01:44;4.13;;;3.50;;
23745;SDS011;12053;48.878;9.632;2023-06-10T13:04:12;3.92;;;3.53;;
23745;SDS011;12053;48.878;9.632;2023-06-10T13:06:39;4.10;;;3.80;;
23745;SDS011;12053;48.878;9.632;2023-06-10T13:09:06;4.50;;;3.95;;
23745;SDS011;12053;48.878;9.632;2023-06-10T13:11:34;3.42;;;3.22;;
23745;SDS011;12053;48.878;9.632;2023-06-10T13:14:02;4.68;;;4.18;;
23745;SDS011;12053;48.878;9.632;2023-06-10T13:16:31;4.70;;;4.30;;
23745;SDS011;12053;48.878;9.632;2023-06-10T13:18:58;4.60;;;4.20;;
23745;SDS011;12053;48.878;9.632;2023-06-10T13:21:27;4.40;;;4.00;;
23745;SDS011;12053;48.878;9.632;2023-06-10T13:23:54;4.88;;;4.30;;
23745;SDS011;12053;48.878;9.632;2023-06-10T13:26:21;9.00;;;4.22;;
23745;SDS011;12053;48.878;9.632;2023-06-10T13:28:49;4.88;;;4.38;;
23745;SDS011;12053;48.878;9.632;2023-06-10T13:31:16;6.45;;;4.55;;
23745;SDS011;12053;48.878;9.632;2023-06-10T13:33:44;5.25;;;4.18;;
23745;SDS011;12053;48.878;9.632;2023-06-10T13:36:11;5.00;;;4.60;;
23745;SDS011;12053;48.878;9.632;2023-06-10T13:38:38;5.75;;;4.88;;
23745;SDS011;12053;48.878;9.632;2023-06-10T13:41:05;4.85;;;4.35;;
23745;SDS011;12053;48.878;9.632;2023-06-10T13:43:33;6.63;;;4.90;;
23745;SDS011;12053;48.878;9.632;2023-06-10T13:46:00;4.93;;;4.53;;
23745;SDS011;12053;48.878;9.632;2023-06-10T13:48:27;4.70;;;4.30;;
23745;SDS011;12053;48.878;9.632;2023-06-10T13:50:55;5.35;;;4.15;;
23745;SDS011;12053;48.878;9.632;2023-06-10T13:53:22;5.80;;;4.25;;
23745;SDS011;12053;48.878;9.632;2023-06-10T13:55:50;5.20;;;3.75;;
23745;SDS011;12053;48.878;9.632;2023-06-10T13:58:17;4.55;;;4.15;;
23745;SDS011;12053;48.878;9.632;2023-06-10T14:00:44;4.68;;;4.22;;
23745;SDS011;12053;48.878;9.632;2023-06-10T14:03:12;4.45;;;4.05;;
23745;SDS011;12053;48.878;9.632;2023-06-10T14:05:39;4.68;;;4.28;;
23745;SDS011;12053;48.878;9.632;2023-06-10T14:08:06;5.13;;;4.40;;
23745;SDS011;12053;48.878;9.632;2023-06-10T14:10:33;6.53;;;4.35;;
23745;SDS011;12053;48.878;9.632;2023-06-10T14:13:01;4.50;;;4.10;;
23745;SDS011;12053;48.878;9.632;2023-06-10T14:15:28;4.10;;;3.80;;
23745;SDS011;12053;48.878;9.632;2023-06-10T14:17:56;3.92;;;3.53;;
23745;SDS011;12053;48.878;9.632;2023-06-10T14:20:24;3.55;;;3.25;;
23745;SDS011;12053;48.878;9.632;2023-06-10T14:22:52;4.07;;;3.45;;
23745;SDS011;12053;48.878;9.632;2023-06-10T14:25:20;4.70;;;3.97;;
23745;SDS011;12053;48.878;9.632;2023-06-10T14:27:47;3.78;;;3.47;;
23745;SDS011;12053;48.878;9.632;2023-06-10T14:30:14;3.60;;;3.25;;
23745;SDS011;12053;48.878;9.632;2023-06-10T14:32:42;4.10;;;3.70;;
23745;SDS011;12053;48.878;9.632;2023-06-10T14:35:10;3.70;;;3.40;;
23745;SDS011;12053;48.878;9.632;2023-06-10T14:37:37;5.22;;;3.25;;
23745;SDS011;12053;48.878;9.632;2023-06-10T14:40:05;4.28;;;3.78;;
23745;SDS011;12053;48.878;9.632;2023-06-10T14:42:32;4.22;;;3.53;;
23745;SDS011;12053;48.878;9.632;2023-06-10T14:44:59;3.47;;;3.17;;
23745;SDS011;12053;48.878;9.632;2023-06-10T14:47:27;4.45;;;3.97;;
23745;SDS011;12053;48.878;9.632;2023-06-10T14:49:54;3.70;;;3.42;;
23745;SDS011;12053;48.878;9.632;2023-06-10T14:52:21;3.22;;;3.00;;
23745;SDS011;12053;48.878;9.632;2023-06-10T14:54:49;4.13;;;3.67;;
23745;SDS011;12053;48.878;9.632;2023-06-10T14:57:16;4.28;;;3.10;;
23745;SDS011;12053;48.878;9.632;2023-06-10T14:59:43;3.13;;;2.83;;
23745;SDS011;12053;48.878;9.632;2023-06-10T15:02:11;3.72;;;3.33;;
23745;SDS011;12053;48.878;9.632;2023-06-10T15:04:38;4.07;;;3.40;;
23745;SDS011;12053;48.878;9.632;2023-06-10T15:07:05;4.90;;;3.25;;
23745;SDS011;12053;48.878;9.632;2023-06-10T15:09:32;3.33;;;3.00;;
23745;SDS011;12053;48.878;9.632;2023-06-10T15:11:59;3.47;;;3.17;;
23745;SDS011;12053;48.878;9.632;2023-06-10T15:14:27;3.60;;;3.30;;
23745;SDS011;12053;48.878;9.632;2023-06-10T15:16:54;4.07;;;3.10;;